sensor_id;sensor_type;location;lat;lon;timestamp;pressure;altitude;pressure_sealevel;temperature
20103;BMP180;10210;52.284;9.892;2023-04-15T00:01:25;99840.00;;;14.70
20103;BMP180;10210;52.284;9.892;2023-04-15T00:03:53;99838.00;;;14.70
20103;BMP180;10210;52.284;9.892;2023-04-15T00:06:22;99826.00;;;14.70
20103;BMP180;10210;52.284;9.892;2023-04-15T00:08:48;99826.00;;;14.70
20103;BMP180;10210;52.284;9.892;2023-04-15T00:11:17;99824.00;;;14.60
20103;BMP180;10210;52.284;9.892;2023-04-15T00:13:44;99826.00;;;14.60
20103;BMP180;10210;52.284;9.892;2023-04-15T00:16:10;99826.00;;;14.60
20103;BMP180;10210;52.284;9.892;2023-04-15T00:18:36;99824.00;;;14.60
20103;BMP180;10210;52.284;9.892;2023-04-15T00:21:04;99820.00;;;14.60
20103;BMP180;10210;52.284;9.892;2023-04-15T00:23:29;99821.00;;;14.50
20103;BMP180;10210;52.284;9.892;2023-04-15T00:25:55;99820.00;;;14.50
20103;BMP180;10210;52.284;9.892;2023-04-15T00:28:21;99820.00;;;14.50
20103;BMP180;10210;52.284;9.892;2023-04-15T00:30:47;99817.00;;;14.40
20103;BMP180;10210;52.284;9.892;2023-04-15T00:33:13;99817.00;;;14.40
20103;BMP180;10210;52.284;9.892;2023-04-15T00:35:41;99796.00;;;14.40
20103;BMP180;10210;52.284;9.892;2023-04-15T00:38:06;99811.00;;;14.40
20103;BMP180;10210;52.284;9.892;2023-04-15T00:40:32;99803.00;;;14.30
20103;BMP180;10210;52.284;9.892;2023-04-15T00:42:59;99798.00;;;14.30
20103;BMP180;10210;52.284;9.892;2023-04-15T00:45:25;99802.00;;;14.30
20103;BMP180;10210;52.284;9.892;2023-04-15T00:47:52;99799.00;;;14.30
20103;BMP180;10210;52.284;9.892;2023-04-15T00:50:18;99806.00;;;14.30
20103;BMP180;10210;52.284;9.892;2023-04-15T00:52:43;99804.00;;;14.30
20103;BMP180;10210;52.284;9.892;2023-04-15T00:55:10;99801.00;;;14.30
20103;BMP180;10210;52.284;9.892;2023-04-15T00:57:36;99805.00;;;14.30
20103;BMP180;10210;52.284;9.892;2023-04-15T01:00:04;99788.00;;;14.30
20103;BMP180;10210;52.284;9.892;2023-04-15T01:02:34;99801.00;;;14.30
20103;BMP180;10210;52.284;9.892;2023-04-15T01:05:01;99785.00;;;14.30
20103;BMP180;10210;52.284;9.892;2023-04-15T01:07:28;99797.00;;;14.20
20103;BMP180;10210;52.284;9.892;2023-04-15T01:09:54;99795.00;;;14.20
20103;BMP180;10210;52.284;9.892;2023-04-15T01:12:20;99791.00;;;14.20
20103;BMP180;10210;52.284;9.892;2023-04-15T01:14:46;99790.00;;;14.20
20103;BMP180;10210;52.284;9.892;2023-04-15T01:17:11;99788.00;;;14.20
20103;BMP180;10210;52.284;9.892;2023-04-15T01:19:38;99782.00;;;14.10
20103;BMP180;10210;52.284;9.892;2023-04-15T01:22:04;99792.00;;;14.10
20103;BMP180;10210;52.284;9.892;2023-04-15T01:24:31;99790.00;;;14.10
20103;BMP180;10210;52.284;9.892;2023-04-15T01:26:58;99791.00;;;14.10
20103;BMP180;10210;52.284;9.892;2023-04-15T01:29:24;99793.00;;;14.10
20103;BMP180;10210;52.284;9.892;2023-04-15T01:31:51;99782.00;;;14.00
20103;BMP180;10210;52.284;9.892;2023-04-15T01:34:18;99782.00;;;14.00
20103;BMP180;10210;52.284;9.892;2023-04-15T01:36:44;99790.00;;;14.00
20103;BMP180;10210;52.284;9.892;2023-04-15T01:39:09;99784.00;;;13.90
20103;BMP180;10210;52.284;9.892;2023-04-15T01:41:35;99789.00;;;13.90
20103;BMP180;10210;52.284;9.892;2023-04-15T01:44:01;99786.00;;;13.90
20103;BMP180;10210;52.284;9.892;2023-04-15T01:46:26;99780.00;;;13.90
20103;BMP180;10210;52.284;9.892;2023-04-15T01:48:52;99783.00;;;13.80
20103;BMP180;10210;52.284;9.892;2023-04-15T01:51:18;99784.00;;;13.80
20103;BMP180;10210;52.284;9.892;2023-04-15T01:53:43;99780.00;;;13.90
20103;BMP180;10210;52.284;9.892;2023-04-15T01:56:09;99773.00;;;13.80
20103;BMP180;10210;52.284;9.892;2023-04-15T01:58:35;99782.00;;;13.80
20103;BMP180;10210;52.284;9.892;2023-04-15T02:01:00;99773.00;;;13.80
20103;BMP180;10210;52.284;9.892;2023-04-15T02:03:28;99769.00;;;13.80
20103;BMP180;10210;52.284;9.892;2023-04-15T02:05:54;99771.00;;;13.80
20103;BMP180;10210;52.284;9.892;2023-04-15T02:08:19;99755.00;;;13.80
20103;BMP180;10210;52.284;9.892;2023-04-15T02:10:45;99767.00;;;13.80
20103;BMP180;10210;52.284;9.892;2023-04-15T02:13:11;99769.00;;;13.70
20103;BMP180;10210;52.284;9.892;2023-04-15T02:15:36;99767.00;;;13.70
20103;BMP180;10210;52.284;9.892;2023-04-15T02:18:03;99762.00;;;13.70
20103;BMP180;10210;52.284;9.892;2023-04-15T02:20:29;99762.00;;;13.70
20103;BMP180;10210;52.284;9.892;2023-04-15T02:22:55;99764.00;;;13.70
20103;BMP180;10210;52.284;9.892;2023-04-15T02:25:21;99763.00;;;13.70
20103;BMP180;10210;52.284;9.892;2023-04-15T02:27:47;99752.00;;;13.70
20103;BMP180;10210;52.284;9.892;2023-04-15T02:30:13;99759.00;;;13.60
20103;BMP180;10210;52.284;9.892;2023-04-15T02:32:40;99754.00;;;13.60
20103;BMP180;10210;52.284;9.892;2023-04-15T02:35:08;99753.00;;;13.60
20103;BMP180;10210;52.284;9.892;2023-04-15T02:37:37;99765.00;;;13.60
20103;BMP180;10210;52.284;9.892;2023-04-15T02:40:09;99758.00;;;13.50
20103;BMP180;10210;52.284;9.892;2023-04-15T02:42:40;99761.00;;;13.60
20103;BMP180;10210;52.284;9.892;2023-04-15T02:45:07;99765.00;;;13.50
20103;BMP180;10210;52.284;9.892;2023-04-15T02:47:36;99763.00;;;13.50
20103;BMP180;10210;52.284;9.892;2023-04-15T02:50:07;99762.00;;;13.50
20103;BMP180;10210;52.284;9.892;2023-04-15T02:52:33;99755.00;;;13.50
20103;BMP180;10210;52.284;9.892;2023-04-15T02:54:59;99772.00;;;13.50
20103;BMP180;10210;52.284;9.892;2023-04-15T02:57:27;99778.00;;;13.50
20103;BMP180;10210;52.284;9.892;2023-04-15T02:59:54;99776.00;;;13.50
20103;BMP180;10210;52.284;9.892;2023-04-15T03:02:20;99766.00;;;13.50
20103;BMP180;10210;52.284;9.892;2023-04-15T03:04:45;99767.00;;;13.50
20103;BMP180;10210;52.284;9.892;2023-04-15T03:07:11;99763.00;;;13.50
20103;BMP180;10210;52.284;9.892;2023-04-15T03:09:37;99771.00;;;13.50
20103;BMP180;10210;52.284;9.892;2023-04-15T03:12:04;99772.00;;;13.50
20103;BMP180;10210;52.284;9.892;2023-04-15T03:14:30;99780.00;;;13.50
20103;BMP180;10210;52.284;9.892;2023-04-15T03:16:56;99769.00;;;13.50
20103;BMP180;10210;52.284;9.892;2023-04-15T03:19:24;99764.00;;;13.50
20103;BMP180;10210;52.284;9.892;2023-04-15T03:21:50;99767.00;;;13.40
20103;BMP180;10210;52.284;9.892;2023-04-15T03:24:17;99769.00;;;13.40
20103;BMP180;10210;52.284;9.892;2023-04-15T03:26:42;99761.00;;;13.30
20103;BMP180;10210;52.284;9.892;2023-04-15T03:29:08;99766.00;;;13.30
20103;BMP180;10210;52.284;9.892;2023-04-15T03:31:34;99766.00;;;13.20
20103;BMP180;10210;52.284;9.892;2023-04-15T03:33:59;99757.00;;;13.20
20103;BMP180;10210;52.284;9.892;2023-04-15T03:36:28;99765.00;;;13.10
20103;BMP180;10210;52.284;9.892;2023-04-15T03:38:54;99761.00;;;13.10
20103;BMP180;10210;52.284;9.892;2023-04-15T03:41:20;99763.00;;;13.00
20103;BMP180;10210;52.284;9.892;2023-04-15T03:43:46;99758.00;;;13.00
20103;BMP180;10210;52.284;9.892;2023-04-15T03:46:11;99760.00;;;12.90
20103;BMP180;10210;52.284;9.892;2023-04-15T03:48:37;99754.00;;;12.90
20103;BMP180;10210;52.284;9.892;2023-04-15T03:51:03;99763.00;;;12.80
20103;BMP180;10210;52.284;9.892;2023-04-15T03:53:28;99752.00;;;12.80
20103;BMP180;10210;52.284;9.892;2023-04-15T03:55:54;99760.00;;;12.80
20103;BMP180;10210;52.284;9.892;2023-04-15T03:58:19;99761.00;;;12.80
20103;BMP180;10210;52.284;9.892;2023-04-15T04:00:45;99765.00;;;12.70
20103;BMP180;10210;52.284;9.892;2023-04-15T04:03:11;99767.00;;;12.70
20103;BMP180;10210;52.284;9.892;2023-04-15T04:05:36;99762.00;;;12.70
20103;BMP180;10210;52.284;9.892;2023-04-15T04:08:04;99770.00;;;12.70
20103;BMP180;10210;52.284;9.892;2023-04-15T04:10:30;99768.00;;;12.60
20103;BMP180;10210;52.284;9.892;2023-04-15T04:12:55;99762.00;;;12.60
20103;BMP180;10210;52.284;9.892;2023-04-15T04:15:21;99765.00;;;12.60
20103;BMP180;10210;52.284;9.892;2023-04-15T04:17:46;99766.00;;;12.60
20103;BMP180;10210;52.284;9.892;2023-04-15T04:20:12;99760.00;;;12.60
20103;BMP180;10210;52.284;9.892;2023-04-15T04:22:39;99763.00;;;12.60
20103;BMP180;10210;52.284;9.892;2023-04-15T04:25:06;99762.00;;;12.50
20103;BMP180;10210;52.284;9.892;2023-04-15T04:27:33;99768.00;;;12.50
20103;BMP180;10210;52.284;9.892;2023-04-15T04:29:59;99764.00;;;12.50
20103;BMP180;10210;52.284;9.892;2023-04-15T04:32:26;99770.00;;;12.50
20103;BMP180;10210;52.284;9.892;2023-04-15T04:34:51;99766.00;;;12.50
20103;BMP180;10210;52.284;9.892;2023-04-15T04:37:17;99780.00;;;12.50
20103;BMP180;10210;52.284;9.892;2023-04-15T04:39:43;99765.00;;;12.40
20103;BMP180;10210;52.284;9.892;2023-04-15T04:42:08;99763.00;;;12.40
20103;BMP180;10210;52.284;9.892;2023-04-15T04:44:34;99761.00;;;12.40
20103;BMP180;10210;52.284;9.892;2023-04-15T04:46:59;99772.00;;;12.30
20103;BMP180;10210;52.284;9.892;2023-04-15T04:49:25;99763.00;;;12.30
20103;BMP180;10210;52.284;9.892;2023-04-15T04:51:51;99764.00;;;12.30
20103;BMP180;10210;52.284;9.892;2023-04-15T04:54:17;99762.00;;;12.30
20103;BMP180;10210;52.284;9.892;2023-04-15T04:56:42;99761.00;;;12.30
20103;BMP180;10210;52.284;9.892;2023-04-15T04:59:08;99759.00;;;12.30
20103;BMP180;10210;52.284;9.892;2023-04-15T05:01:34;99771.00;;;12.30
20103;BMP180;10210;52.284;9.892;2023-04-15T05:04:00;99770.00;;;12.30
20103;BMP180;10210;52.284;9.892;2023-04-15T05:06:25;99777.00;;;12.30
20103;BMP180;10210;52.284;9.892;2023-04-15T05:08:52;99779.00;;;12.30
20103;BMP180;10210;52.284;9.892;2023-04-15T05:11:17;99767.00;;;12.30
20103;BMP180;10210;52.284;9.892;2023-04-15T05:13:43;99766.00;;;12.20
20103;BMP180;10210;52.284;9.892;2023-04-15T05:16:08;99778.00;;;12.20
20103;BMP180;10210;52.284;9.892;2023-04-15T05:18:34;99777.00;;;12.20
20103;BMP180;10210;52.284;9.892;2023-04-15T05:21:01;99767.00;;;12.20
20103;BMP180;10210;52.284;9.892;2023-04-15T05:23:27;99763.00;;;12.20
20103;BMP180;10210;52.284;9.892;2023-04-15T05:25:52;99767.00;;;12.20
20103;BMP180;10210;52.284;9.892;2023-04-15T05:28:18;99767.00;;;12.20
20103;BMP180;10210;52.284;9.892;2023-04-15T05:30:44;99771.00;;;12.10
20103;BMP180;10210;52.284;9.892;2023-04-15T05:33:10;99776.00;;;12.10
20103;BMP180;10210;52.284;9.892;2023-04-15T05:35:36;99755.00;;;12.10
20103;BMP180;10210;52.284;9.892;2023-04-15T05:38:01;99763.00;;;12.10
20103;BMP180;10210;52.284;9.892;2023-04-15T05:40:27;99770.00;;;12.10
20103;BMP180;10210;52.284;9.892;2023-04-15T05:42:53;99759.00;;;12.10
20103;BMP180;10210;52.284;9.892;2023-04-15T05:45:18;99760.00;;;12.10
20103;BMP180;10210;52.284;9.892;2023-04-15T05:47:44;99759.00;;;12.10
20103;BMP180;10210;52.284;9.892;2023-04-15T05:50:10;99760.00;;;12.00
20103;BMP180;10210;52.284;9.892;2023-04-15T05:52:36;99758.00;;;12.00
20103;BMP180;10210;52.284;9.892;2023-04-15T05:55:01;99763.00;;;12.00
20103;BMP180;10210;52.284;9.892;2023-04-15T05:57:27;99757.00;;;12.00
20103;BMP180;10210;52.284;9.892;2023-04-15T05:59:53;99754.00;;;12.00
20103;BMP180;10210;52.284;9.892;2023-04-15T06:02:20;99755.00;;;12.00
20103;BMP180;10210;52.284;9.892;2023-04-15T06:04:46;99751.00;;;12.00
20103;BMP180;10210;52.284;9.892;2023-04-15T06:07:12;99747.00;;;11.90
20103;BMP180;10210;52.284;9.892;2023-04-15T06:09:37;99750.00;;;11.90
20103;BMP180;10210;52.284;9.892;2023-04-15T06:12:04;99750.00;;;11.90
20103;BMP180;10210;52.284;9.892;2023-04-15T06:14:31;99764.00;;;11.90
20103;BMP180;10210;52.284;9.892;2023-04-15T06:16:56;99758.00;;;11.90
20103;BMP180;10210;52.284;9.892;2023-04-15T06:19:22;99755.00;;;11.90
20103;BMP180;10210;52.284;9.892;2023-04-15T06:21:48;99750.00;;;11.90
20103;BMP180;10210;52.284;9.892;2023-04-15T06:24:13;99758.00;;;11.90
20103;BMP180;10210;52.284;9.892;2023-04-15T06:26:39;99758.00;;;11.90
20103;BMP180;10210;52.284;9.892;2023-04-15T06:29:04;99759.00;;;11.90
20103;BMP180;10210;52.284;9.892;2023-04-15T06:31:30;99759.00;;;11.90
20103;BMP180;10210;52.284;9.892;2023-04-15T06:33:56;99764.00;;;11.90
20103;BMP180;10210;52.284;9.892;2023-04-15T06:36:21;99758.00;;;11.90
20103;BMP180;10210;52.284;9.892;2023-04-15T06:38:47;99752.00;;;11.80
20103;BMP180;10210;52.284;9.892;2023-04-15T06:41:13;99753.00;;;11.80
20103;BMP180;10210;52.284;9.892;2023-04-15T06:43:39;99758.00;;;11.80
20103;BMP180;10210;52.284;9.892;2023-04-15T06:46:04;99753.00;;;11.80
20103;BMP180;10210;52.284;9.892;2023-04-15T06:48:30;99760.00;;;11.80
20103;BMP180;10210;52.284;9.892;2023-04-15T06:50:56;99756.00;;;11.80
20103;BMP180;10210;52.284;9.892;2023-04-15T06:53:24;99753.00;;;11.80
20103;BMP180;10210;52.284;9.892;2023-04-15T06:55:52;99765.00;;;11.80
20103;BMP180;10210;52.284;9.892;2023-04-15T06:58:18;99774.00;;;11.80
20103;BMP180;10210;52.284;9.892;2023-04-15T07:00:43;99774.00;;;11.80
20103;BMP180;10210;52.284;9.892;2023-04-15T07:03:11;99771.00;;;11.90
20103;BMP180;10210;52.284;9.892;2023-04-15T07:05:37;99787.00;;;11.90
20103;BMP180;10210;52.284;9.892;2023-04-15T07:08:04;99784.00;;;11.90
20103;BMP180;10210;52.284;9.892;2023-04-15T07:10:30;99777.00;;;12.00
20103;BMP180;10210;52.284;9.892;2023-04-15T07:12:56;99795.00;;;12.00
20103;BMP180;10210;52.284;9.892;2023-04-15T07:15:22;99788.00;;;12.00
20103;BMP180;10210;52.284;9.892;2023-04-15T07:17:48;99788.00;;;12.00
20103;BMP180;10210;52.284;9.892;2023-04-15T07:20:13;99793.00;;;12.00
20103;BMP180;10210;52.284;9.892;2023-04-15T07:22:39;99785.00;;;12.00
20103;BMP180;10210;52.284;9.892;2023-04-15T07:25:06;99795.00;;;12.00
20103;BMP180;10210;52.284;9.892;2023-04-15T07:27:32;99801.00;;;12.00
20103;BMP180;10210;52.284;9.892;2023-04-15T07:29:57;99798.00;;;12.00
20103;BMP180;10210;52.284;9.892;2023-04-15T07:32:23;99790.00;;;12.10
20103;BMP180;10210;52.284;9.892;2023-04-15T07:34:49;99803.00;;;12.10
20103;BMP180;10210;52.284;9.892;2023-04-15T07:37:14;99800.00;;;12.10
20103;BMP180;10210;52.284;9.892;2023-04-15T07:39:40;99800.00;;;12.10
20103;BMP180;10210;52.284;9.892;2023-04-15T07:42:06;99813.00;;;12.10
20103;BMP180;10210;52.284;9.892;2023-04-15T07:44:31;99801.00;;;12.20
20103;BMP180;10210;52.284;9.892;2023-04-15T07:46:57;99805.00;;;12.20
20103;BMP180;10210;52.284;9.892;2023-04-15T07:49:23;99809.00;;;12.20
20103;BMP180;10210;52.284;9.892;2023-04-15T07:51:48;99809.00;;;12.20
20103;BMP180;10210;52.284;9.892;2023-04-15T07:54:15;99813.00;;;12.20
20103;BMP180;10210;52.284;9.892;2023-04-15T07:56:40;99812.00;;;12.20
20103;BMP180;10210;52.284;9.892;2023-04-15T07:59:06;99817.00;;;12.30
20103;BMP180;10210;52.284;9.892;2023-04-15T08:01:33;99827.00;;;12.20
20103;BMP180;10210;52.284;9.892;2023-04-15T08:03:59;99824.00;;;12.20
20103;BMP180;10210;52.284;9.892;2023-04-15T08:06:25;99829.00;;;12.20
20103;BMP180;10210;52.284;9.892;2023-04-15T08:08:52;99827.00;;;12.20
20103;BMP180;10210;52.284;9.892;2023-04-15T08:11:19;99839.00;;;12.20
20103;BMP180;10210;52.284;9.892;2023-04-15T08:13:46;99827.00;;;12.20
20103;BMP180;10210;52.284;9.892;2023-04-15T08:16:23;99826.00;;;12.20
20103;BMP180;10210;52.284;9.892;2023-04-15T08:18:51;99825.00;;;12.20
20103;BMP180;10210;52.284;9.892;2023-04-15T08:21:18;99825.00;;;12.20
20103;BMP180;10210;52.284;9.892;2023-04-15T08:23:46;99813.00;;;12.20
20103;BMP180;10210;52.284;9.892;2023-04-15T08:26:13;99827.00;;;12.20
20103;BMP180;10210;52.284;9.892;2023-04-15T08:28:41;99827.00;;;12.20
20103;BMP180;10210;52.284;9.892;2023-04-15T08:31:07;99820.00;;;12.20
20103;BMP180;10210;52.284;9.892;2023-04-15T08:33:34;99813.00;;;12.20
20103;BMP180;10210;52.284;9.892;2023-04-15T08:35:59;99811.00;;;12.20
20103;BMP180;10210;52.284;9.892;2023-04-15T08:38:25;99827.00;;;12.20
20103;BMP180;10210;52.284;9.892;2023-04-15T08:40:51;99826.00;;;12.30
20103;BMP180;10210;52.284;9.892;2023-04-15T08:43:32;99826.00;;;12.30
20103;BMP180;10210;52.284;9.892;2023-04-15T08:45:59;99813.00;;;12.30
20103;BMP180;10210;52.284;9.892;2023-04-15T08:48:31;99823.00;;;12.30
20103;BMP180;10210;52.284;9.892;2023-04-15T08:50:57;99826.00;;;12.40
20103;BMP180;10210;52.284;9.892;2023-04-15T08:53:24;99826.00;;;12.40
20103;BMP180;10210;52.284;9.892;2023-04-15T08:55:51;99830.00;;;12.40
20103;BMP180;10210;52.284;9.892;2023-04-15T08:58:18;99826.00;;;12.50
20103;BMP180;10210;52.284;9.892;2023-04-15T09:00:44;99824.00;;;12.50
20103;BMP180;10210;52.284;9.892;2023-04-15T09:03:10;99827.00;;;12.50
20103;BMP180;10210;52.284;9.892;2023-04-15T09:05:37;99828.00;;;12.50
20103;BMP180;10210;52.284;9.892;2023-04-15T09:08:04;99836.00;;;12.50
20103;BMP180;10210;52.284;9.892;2023-04-15T09:10:33;99838.00;;;12.50
20103;BMP180;10210;52.284;9.892;2023-04-15T09:13:00;99865.00;;;12.60
20103;BMP180;10210;52.284;9.892;2023-04-15T09:15:26;99860.00;;;12.60
20103;BMP180;10210;52.284;9.892;2023-04-15T09:17:54;99859.00;;;12.60
20103;BMP180;10210;52.284;9.892;2023-04-15T09:20:21;99861.00;;;12.60
20103;BMP180;10210;52.284;9.892;2023-04-15T09:22:48;99863.00;;;12.60
20103;BMP180;10210;52.284;9.892;2023-04-15T09:27:58;99872.00;;;12.60
20103;BMP180;10210;52.284;9.892;2023-04-15T09:30:28;99876.00;;;12.70
20103;BMP180;10210;52.284;9.892;2023-04-15T09:33:00;99877.00;;;12.70
20103;BMP180;10210;52.284;9.892;2023-04-15T09:35:33;99877.00;;;12.70
20103;BMP180;10210;52.284;9.892;2023-04-15T09:38:04;99873.00;;;12.70
20103;BMP180;10210;52.284;9.892;2023-04-15T09:40:41;99882.00;;;12.70
20103;BMP180;10210;52.284;9.892;2023-04-15T09:43:09;99875.00;;;12.70
20103;BMP180;10210;52.284;9.892;2023-04-15T09:45:37;99884.00;;;12.70
20103;BMP180;10210;52.284;9.892;2023-04-15T09:48:22;99880.00;;;12.70
20103;BMP180;10210;52.284;9.892;2023-04-15T09:50:51;99878.00;;;12.80
20103;BMP180;10210;52.284;9.892;2023-04-15T09:53:24;99883.00;;;12.80
20103;BMP180;10210;52.284;9.892;2023-04-15T09:55:52;99879.00;;;12.80
20103;BMP180;10210;52.284;9.892;2023-04-15T09:58:23;99889.00;;;12.80
20103;BMP180;10210;52.284;9.892;2023-04-15T10:00:51;99887.00;;;12.80
20103;BMP180;10210;52.284;9.892;2023-04-15T10:03:20;99885.00;;;12.90
20103;BMP180;10210;52.284;9.892;2023-04-15T10:05:49;99887.00;;;12.90
20103;BMP180;10210;52.284;9.892;2023-04-15T10:08:21;99886.00;;;12.90
20103;BMP180;10210;52.284;9.892;2023-04-15T10:10:48;99884.00;;;12.90
20103;BMP180;10210;52.284;9.892;2023-04-15T10:13:18;99891.00;;;13.00
20103;BMP180;10210;52.284;9.892;2023-04-15T10:15:50;99890.00;;;13.00
20103;BMP180;10210;52.284;9.892;2023-04-15T10:18:19;99885.00;;;13.00
20103;BMP180;10210;52.284;9.892;2023-04-15T10:20:47;99886.00;;;13.00
20103;BMP180;10210;52.284;9.892;2023-04-15T10:23:14;99891.00;;;13.00
20103;BMP180;10210;52.284;9.892;2023-04-15T10:25:41;99889.00;;;13.10
20103;BMP180;10210;52.284;9.892;2023-04-15T10:28:07;99892.00;;;13.10
20103;BMP180;10210;52.284;9.892;2023-04-15T10:30:34;99885.00;;;13.10
20103;BMP180;10210;52.284;9.892;2023-04-15T10:33:02;99879.00;;;13.20
20103;BMP180;10210;52.284;9.892;2023-04-15T10:35:29;99887.00;;;13.20
20103;BMP180;10210;52.284;9.892;2023-04-15T10:37:56;99888.00;;;13.20
20103;BMP180;10210;52.284;9.892;2023-04-15T10:40:31;99888.00;;;13.20
20103;BMP180;10210;52.284;9.892;2023-04-15T10:43:00;99882.00;;;13.20
20103;BMP180;10210;52.284;9.892;2023-04-15T10:45:35;99882.00;;;13.30
20103;BMP180;10210;52.284;9.892;2023-04-15T10:48:03;99894.00;;;13.30
20103;BMP180;10210;52.284;9.892;2023-04-15T10:50:31;99898.00;;;13.30
20103;BMP180;10210;52.284;9.892;2023-04-15T10:52:58;99886.00;;;13.30
20103;BMP180;10210;52.284;9.892;2023-04-15T10:55:32;99889.00;;;13.40
20103;BMP180;10210;52.284;9.892;2023-04-15T10:58:00;99884.00;;;13.40
20103;BMP180;10210;52.284;9.892;2023-04-15T11:00:29;99888.00;;;13.40
20103;BMP180;10210;52.284;9.892;2023-04-15T11:03:08;99884.00;;;13.40
20103;BMP180;10210;52.284;9.892;2023-04-15T11:05:51;99889.00;;;13.30
20103;BMP180;10210;52.284;9.892;2023-04-15T11:08:17;99892.00;;;13.40
20103;BMP180;10210;52.284;9.892;2023-04-15T11:18:17;99904.00;;;13.50
20103;BMP180;10210;52.284;9.892;2023-04-15T11:20:49;99910.00;;;13.50
20103;BMP180;10210;52.284;9.892;2023-04-15T11:23:40;99914.00;;;13.50
20103;BMP180;10210;52.284;9.892;2023-04-15T11:26:10;99908.00;;;13.50
20103;BMP180;10210;52.284;9.892;2023-04-15T11:28:45;99922.00;;;13.50
20103;BMP180;10210;52.284;9.892;2023-04-15T11:31:14;99913.00;;;13.50
20103;BMP180;10210;52.284;9.892;2023-04-15T11:33:57;99915.00;;;13.50
20103;BMP180;10210;52.284;9.892;2023-04-15T11:36:25;99918.00;;;13.50
20103;BMP180;10210;52.284;9.892;2023-04-15T11:38:56;99926.00;;;13.50
20103;BMP180;10210;52.284;9.892;2023-04-15T11:41:22;99928.00;;;13.50
20103;BMP180;10210;52.284;9.892;2023-04-15T11:43:50;99937.00;;;13.50
20103;BMP180;10210;52.284;9.892;2023-04-15T11:46:16;99938.00;;;13.50
20103;BMP180;10210;52.284;9.892;2023-04-15T11:48:45;99944.00;;;13.50
20103;BMP180;10210;52.284;9.892;2023-04-15T11:51:12;99937.00;;;13.60
20103;BMP180;10210;52.284;9.892;2023-04-15T11:53:42;99945.00;;;13.60
20103;BMP180;10210;52.284;9.892;2023-04-15T11:56:10;99949.00;;;13.60
20103;BMP180;10210;52.284;9.892;2023-04-15T11:58:37;99953.00;;;13.60
20103;BMP180;10210;52.284;9.892;2023-04-15T12:01:05;99945.00;;;13.70
20103;BMP180;10210;52.284;9.892;2023-04-15T12:03:41;99957.00;;;13.70
20103;BMP180;10210;52.284;9.892;2023-04-15T12:06:21;99953.00;;;13.70
20103;BMP180;10210;52.284;9.892;2023-04-15T12:11:41;99957.00;;;13.60
20103;BMP180;10210;52.284;9.892;2023-04-15T12:16:48;99964.00;;;13.70
20103;BMP180;10210;52.284;9.892;2023-04-15T12:19:17;99966.00;;;13.70
20103;BMP180;10210;52.284;9.892;2023-04-15T12:21:46;99976.00;;;13.80
20103;BMP180;10210;52.284;9.892;2023-04-15T12:24:12;99974.00;;;13.80
20103;BMP180;10210;52.284;9.892;2023-04-15T12:27:10;99985.00;;;13.70
20103;BMP180;10210;52.284;9.892;2023-04-15T12:29:37;99978.00;;;13.80
20103;BMP180;10210;52.284;9.892;2023-04-15T12:32:16;99981.00;;;13.80
20103;BMP180;10210;52.284;9.892;2023-04-15T12:34:52;99997.00;;;13.80
20103;BMP180;10210;52.284;9.892;2023-04-15T12:37:19;99992.00;;;13.80
20103;BMP180;10210;52.284;9.892;2023-04-15T12:39:47;99992.00;;;13.80
20103;BMP180;10210;52.284;9.892;2023-04-15T12:42:14;99993.00;;;13.80
20103;BMP180;10210;52.284;9.892;2023-04-15T12:44:40;99999.00;;;13.80
20103;BMP180;10210;52.284;9.892;2023-04-15T12:47:07;100010.00;;;13.80
20103;BMP180;10210;52.284;9.892;2023-04-15T12:49:34;99999.00;;;13.80
20103;BMP180;10210;52.284;9.892;2023-04-15T12:52:01;100003.00;;;13.80
20103;BMP180;10210;52.284;9.892;2023-04-15T12:54:28;100021.00;;;13.90
20103;BMP180;10210;52.284;9.892;2023-04-15T12:56:55;100009.00;;;13.90
20103;BMP180;10210;52.284;9.892;2023-04-15T12:59:21;100024.00;;;13.90
20103;BMP180;10210;52.284;9.892;2023-04-15T13:01:49;100014.00;;;13.90
20103;BMP180;10210;52.284;9.892;2023-04-15T13:04:16;100021.00;;;13.90
20103;BMP180;10210;52.284;9.892;2023-04-15T13:06:42;100020.00;;;14.00
20103;BMP180;10210;52.284;9.892;2023-04-15T13:09:08;100029.00;;;14.00
20103;BMP180;10210;52.284;9.892;2023-04-15T13:11:34;100029.00;;;14.00
20103;BMP180;10210;52.284;9.892;2023-04-15T13:14:06;100035.00;;;14.00
20103;BMP180;10210;52.284;9.892;2023-04-15T13:16:32;100031.00;;;14.00
20103;BMP180;10210;52.284;9.892;2023-04-15T13:18:59;100041.00;;;14.00
20103;BMP180;10210;52.284;9.892;2023-04-15T13:21:25;100037.00;;;14.10
20103;BMP180;10210;52.284;9.892;2023-04-15T13:23:51;100048.00;;;14.10
20103;BMP180;10210;52.284;9.892;2023-04-15T13:26:18;100042.00;;;14.10
20103;BMP180;10210;52.284;9.892;2023-04-15T13:28:44;100048.00;;;14.20
20103;BMP180;10210;52.284;9.892;2023-04-15T13:31:10;100053.00;;;14.20
20103;BMP180;10210;52.284;9.892;2023-04-15T13:33:36;100054.00;;;14.20
20103;BMP180;10210;52.284;9.892;2023-04-15T13:36:02;100057.00;;;14.20
20103;BMP180;10210;52.284;9.892;2023-04-15T13:38:27;100049.00;;;14.30
20103;BMP180;10210;52.284;9.892;2023-04-15T13:40:53;100043.00;;;14.30
20103;BMP180;10210;52.284;9.892;2023-04-15T13:43:19;100049.00;;;14.40
20103;BMP180;10210;52.284;9.892;2023-04-15T13:45:46;100042.00;;;14.40
20103;BMP180;10210;52.284;9.892;2023-04-15T13:48:12;100048.00;;;14.50
20103;BMP180;10210;52.284;9.892;2023-04-15T13:50:37;100043.00;;;14.50
20103;BMP180;10210;52.284;9.892;2023-04-15T13:53:03;100048.00;;;14.60
20103;BMP180;10210;52.284;9.892;2023-04-15T13:55:28;100053.00;;;14.70
20103;BMP180;10210;52.284;9.892;2023-04-15T13:57:55;100067.00;;;14.80
20103;BMP180;10210;52.284;9.892;2023-04-15T14:00:21;100064.00;;;14.90
20103;BMP180;10210;52.284;9.892;2023-04-15T14:02:47;100067.00;;;15.00
20103;BMP180;10210;52.284;9.892;2023-04-15T14:05:13;100066.00;;;15.10
20103;BMP180;10210;52.284;9.892;2023-04-15T14:07:39;100069.00;;;15.10
20103;BMP180;10210;52.284;9.892;2023-04-15T14:10:05;100075.00;;;15.20
20103;BMP180;10210;52.284;9.892;2023-04-15T14:12:34;100066.00;;;15.20
20103;BMP180;10210;52.284;9.892;2023-04-15T14:15:00;100076.00;;;15.30
20103;BMP180;10210;52.284;9.892;2023-04-15T14:17:26;100077.00;;;15.30
20103;BMP180;10210;52.284;9.892;2023-04-15T14:19:52;100068.00;;;15.40
20103;BMP180;10210;52.284;9.892;2023-04-15T14:22:18;100073.00;;;15.40